sensor_id;sensor_type;location;lat;lon;timestamp;pressure;altitude;pressure_sealevel;temperature;humidity
73748;BME280;62056;52.130;5.428;2023-05-15T00:01:25;101771.41;;;13.18;75.48
73748;BME280;62056;52.130;5.428;2023-05-15T00:03:52;101784.25;;;13.15;74.99
73748;BME280;62056;52.130;5.428;2023-05-15T00:06:20;101772.53;;;13.11;75.03
73748;BME280;62056;52.130;5.428;2023-05-15T00:08:47;101766.69;;;13.09;76.08
73748;BME280;62056;52.130;5.428;2023-05-15T00:11:14;101772.59;;;13.06;75.73
73748;BME280;62056;52.130;5.428;2023-05-15T00:13:40;101770.19;;;13.05;75.50
73748;BME280;62056;52.130;5.428;2023-05-15T00:16:07;101766.72;;;13.04;76.11
73748;BME280;62056;52.130;5.428;2023-05-15T00:18:35;101764.59;;;13.01;77.03
73748;BME280;62056;52.130;5.428;2023-05-15T00:21:02;101766.50;;;12.95;76.58
73748;BME280;62056;52.130;5.428;2023-05-15T00:23:28;101763.09;;;12.90;78.10
73748;BME280;62056;52.130;5.428;2023-05-15T00:25:55;101766.56;;;12.90;77.53
73748;BME280;62056;52.130;5.428;2023-05-15T00:28:22;101761.50;;;12.89;77.55
73748;BME280;62056;52.130;5.428;2023-05-15T00:30:48;101761.25;;;12.85;76.47
73748;BME280;62056;52.130;5.428;2023-05-15T00:33:15;101755.38;;;12.83;77.52
73748;BME280;62056;52.130;5.428;2023-05-15T00:35:43;101760.00;;;12.78;78.57
73748;BME280;62056;52.130;5.428;2023-05-15T00:38:10;101756.00;;;12.75;77.94
73748;BME280;62056;52.130;5.428;2023-05-15T00:40:38;101750.16;;;12.73;77.74
73748;BME280;62056;52.130;5.428;2023-05-15T00:43:05;101751.47;;;12.70;78.10
73748;BME280;62056;52.130;5.428;2023-05-15T00:45:32;101748.28;;;12.68;78.01
73748;BME280;62056;52.130;5.428;2023-05-15T00:48:00;101743.53;;;12.65;77.53
73748;BME280;62056;52.130;5.428;2023-05-15T00:50:28;101736.88;;;12.63;78.01
73748;BME280;62056;52.130;5.428;2023-05-15T00:52:55;101745.44;;;12.60;78.23
73748;BME280;62056;52.130;5.428;2023-05-15T00:55:23;101740.13;;;12.54;78.65
73748;BME280;62056;52.130;5.428;2023-05-15T00:57:52;101737.75;;;12.53;78.53
73748;BME280;62056;52.130;5.428;2023-05-15T01:00:19;101738.25;;;12.55;77.79
73748;BME280;62056;52.130;5.428;2023-05-15T01:02:46;101742.81;;;12.54;78.45
73748;BME280;62056;52.130;5.428;2023-05-15T01:05:13;101735.06;;;12.53;78.17
73748;BME280;62056;52.130;5.428;2023-05-15T01:07:44;101739.09;;;12.50;77.83
73748;BME280;62056;52.130;5.428;2023-05-15T01:10:15;101733.78;;;12.45;78.31
73748;BME280;62056;52.130;5.428;2023-05-15T01:12:43;101739.94;;;12.41;78.41
73748;BME280;62056;52.130;5.428;2023-05-15T01:15:11;101736.50;;;12.40;78.46
73748;BME280;62056;52.130;5.428;2023-05-15T01:17:44;101731.69;;;12.42;77.99
73748;BME280;62056;52.130;5.428;2023-05-15T01:20:13;101732.75;;;12.41;78.09
73748;BME280;62056;52.130;5.428;2023-05-15T01:28:11;101735.72;;;12.34;77.63
73748;BME280;62056;52.130;5.428;2023-05-15T01:30:41;101729.31;;;12.35;78.00
73748;BME280;62056;52.130;5.428;2023-05-15T01:33:17;101727.97;;;12.33;77.75
73748;BME280;62056;52.130;5.428;2023-05-15T01:35:52;101724.31;;;12.24;78.12
73748;BME280;62056;52.130;5.428;2023-05-15T01:38:43;101714.19;;;12.21;80.05
73748;BME280;62056;52.130;5.428;2023-05-15T01:44:06;101716.59;;;12.22;77.97
73748;BME280;62056;52.130;5.428;2023-05-15T01:46:37;101707.78;;;12.22;77.35
73748;BME280;62056;52.130;5.428;2023-05-15T01:49:06;101717.94;;;12.20;77.20
73748;BME280;62056;52.130;5.428;2023-05-15T01:51:36;101716.09;;;12.15;77.43
73748;BME280;62056;52.130;5.428;2023-05-15T01:54:05;101708.88;;;12.15;77.27
73748;BME280;62056;52.130;5.428;2023-05-15T01:56:32;101711.31;;;12.12;77.01
73748;BME280;62056;52.130;5.428;2023-05-15T01:59:02;101717.47;;;12.07;77.27
73748;BME280;62056;52.130;5.428;2023-05-15T02:01:31;101732.44;;;11.98;77.64
73748;BME280;62056;52.130;5.428;2023-05-15T02:04:02;101717.78;;;11.95;78.82
73748;BME280;62056;52.130;5.428;2023-05-15T02:06:30;101732.97;;;11.95;78.13
73748;BME280;62056;52.130;5.428;2023-05-15T02:08:57;101727.38;;;11.91;78.39
73748;BME280;62056;52.130;5.428;2023-05-15T02:11:24;101730.63;;;11.88;79.33
73748;BME280;62056;52.130;5.428;2023-05-15T02:13:51;101726.59;;;11.86;80.86
73748;BME280;62056;52.130;5.428;2023-05-15T02:16:20;101725.00;;;11.85;80.32
73748;BME280;62056;52.130;5.428;2023-05-15T02:18:47;101722.59;;;11.83;79.59
73748;BME280;62056;52.130;5.428;2023-05-15T02:21:14;101733.53;;;11.82;80.34
73748;BME280;62056;52.130;5.428;2023-05-15T02:23:41;101728.22;;;11.77;81.46
73748;BME280;62056;52.130;5.428;2023-05-15T02:26:45;101731.19;;;11.75;81.13
73748;BME280;62056;52.130;5.428;2023-05-15T02:29:25;101727.69;;;11.74;81.54
73748;BME280;62056;52.130;5.428;2023-05-15T02:32:30;101731.72;;;11.72;81.94
73748;BME280;62056;52.130;5.428;2023-05-15T02:35:16;101729.59;;;11.69;84.79
73748;BME280;62056;52.130;5.428;2023-05-15T02:37:48;101728.50;;;11.70;82.65
73748;BME280;62056;52.130;5.428;2023-05-15T02:40:17;101734.38;;;11.72;82.09
73748;BME280;62056;52.130;5.428;2023-05-15T02:42:46;101725.84;;;11.75;82.77
73748;BME280;62056;52.130;5.428;2023-05-15T02:45:13;101725.03;;;11.74;82.61
73748;BME280;62056;52.130;5.428;2023-05-15T02:47:41;101727.69;;;11.74;82.28
73748;BME280;62056;52.130;5.428;2023-05-15T02:50:08;101724.50;;;11.72;82.67
73748;BME280;62056;52.130;5.428;2023-05-15T02:53:04;101732.78;;;11.66;83.80
73748;BME280;62056;52.130;5.428;2023-05-15T02:55:30;101728.81;;;11.63;84.20
73748;BME280;62056;52.130;5.428;2023-05-15T02:57:57;101726.41;;;11.62;86.63
73748;BME280;62056;52.130;5.428;2023-05-15T03:00:24;101722.44;;;11.59;85.07
73748;BME280;62056;52.130;5.428;2023-05-15T03:02:50;101710.19;;;11.53;84.75
73748;BME280;62056;52.130;5.428;2023-05-15T03:05:18;101717.63;;;11.56;83.89
73748;BME280;62056;52.130;5.428;2023-05-15T03:07:45;101710.97;;;11.59;83.36
73748;BME280;62056;52.130;5.428;2023-05-15T03:10:12;101718.97;;;11.59;83.10
73748;BME280;62056;52.130;5.428;2023-05-15T03:12:43;101703.50;;;11.55;84.36
73748;BME280;62056;52.130;5.428;2023-05-15T03:15:10;101717.09;;;11.54;83.01
73748;BME280;62056;52.130;5.428;2023-05-15T03:17:37;101711.28;;;11.47;84.05
73748;BME280;62056;52.130;5.428;2023-05-15T03:20:04;101722.22;;;11.40;84.17
73748;BME280;62056;52.130;5.428;2023-05-15T03:22:31;101714.22;;;11.35;85.12
73748;BME280;62056;52.130;5.428;2023-05-15T03:24:58;101723.28;;;11.34;83.77
73748;BME280;62056;52.130;5.428;2023-05-15T03:27:27;101718.75;;;11.34;84.97
73748;BME280;62056;52.130;5.428;2023-05-15T03:29:54;101711.56;;;11.35;84.58
73748;BME280;62056;52.130;5.428;2023-05-15T03:32:52;101712.91;;;11.32;84.13
73748;BME280;62056;52.130;5.428;2023-05-15T03:35:19;101712.63;;;11.34;85.02
73748;BME280;62056;52.130;5.428;2023-05-15T03:37:45;101710.25;;;11.32;84.74
73748;BME280;62056;52.130;5.428;2023-05-15T03:40:12;101712.91;;;11.38;83.32
73748;BME280;62056;52.130;5.428;2023-05-15T03:42:39;101710.25;;;11.32;83.48
73748;BME280;62056;52.130;5.428;2023-05-15T03:45:07;101718.22;;;11.32;84.53
73748;BME280;62056;52.130;5.428;2023-05-15T03:47:33;101700.91;;;11.35;83.24
73748;BME280;62056;52.130;5.428;2023-05-15T03:50:00;101696.09;;;11.37;84.58
73748;BME280;62056;52.130;5.428;2023-05-15T03:52:27;101693.72;;;11.41;83.44
73748;BME280;62056;52.130;5.428;2023-05-15T03:54:53;101701.69;;;11.41;83.05
73748;BME280;62056;52.130;5.428;2023-05-15T03:57:20;101702.78;;;11.40;83.39
73748;BME280;62056;52.130;5.428;2023-05-15T03:59:47;101693.97;;;11.39;82.89
73748;BME280;62056;52.130;5.428;2023-05-15T04:02:41;101709.72;;;11.36;83.75
73748;BME280;62056;52.130;5.428;2023-05-15T04:05:08;101718.22;;;11.32;83.45
73748;BME280;62056;52.130;5.428;2023-05-15T04:07:35;101715.59;;;11.27;83.37
73748;BME280;62056;52.130;5.428;2023-05-15T04:10:03;101723.81;;;11.21;84.55
73748;BME280;62056;52.130;5.428;2023-05-15T04:12:32;101716.91;;;11.20;84.24
73748;BME280;62056;52.130;5.428;2023-05-15T04:15:18;101715.03;;;11.20;84.04
73748;BME280;62056;52.130;5.428;2023-05-15T04:17:47;101715.06;;;11.15;84.34
73748;BME280;62056;52.130;5.428;2023-05-15T04:20:16;101714.00;;;11.16;83.89
73748;BME280;62056;52.130;5.428;2023-05-15T04:22:43;101720.91;;;11.17;84.50
73748;BME280;62056;52.130;5.428;2023-05-15T04:25:11;101720.91;;;11.17;84.18
73748;BME280;62056;52.130;5.428;2023-05-15T04:28:07;101720.91;;;11.17;84.30
73748;BME280;62056;52.130;5.428;2023-05-15T04:30:34;101717.19;;;11.18;84.50
73748;BME280;62056;52.130;5.428;2023-05-15T04:33:00;101721.16;;;11.21;83.59
73748;BME280;62056;52.130;5.428;2023-05-15T04:35:29;101719.31;;;11.16;83.71
73748;BME280;62056;52.130;5.428;2023-05-15T04:37:55;101720.91;;;11.12;83.89
73748;BME280;62056;52.130;5.428;2023-05-15T04:40:22;101719.06;;;11.07;84.55
73748;BME280;62056;52.130;5.428;2023-05-15T04:42:49;101726.78;;;11.09;84.00
73748;BME280;62056;52.130;5.428;2023-05-15T04:45:16;101725.19;;;11.08;84.46
73748;BME280;62056;52.130;5.428;2023-05-15T04:47:42;101716.66;;;11.11;84.02
73748;BME280;62056;52.130;5.428;2023-05-15T04:50:09;101724.63;;;11.16;83.45
73748;BME280;62056;52.130;5.428;2023-05-15T04:52:36;101730.50;;;11.18;83.76
73748;BME280;62056;52.130;5.428;2023-05-15T04:55:03;101728.09;;;11.17;84.49
73748;BME280;62056;52.130;5.428;2023-05-15T04:57:29;101730.75;;;11.17;84.07
73748;BME280;62056;52.130;5.428;2023-05-15T04:59:56;101741.69;;;11.15;84.14
73748;BME280;62056;52.130;5.428;2023-05-15T05:02:23;101734.50;;;11.16;84.05
73748;BME280;62056;52.130;5.428;2023-05-15T05:04:50;101725.97;;;11.19;83.62
73748;BME280;62056;52.130;5.428;2023-05-15T05:07:23;101727.59;;;11.14;83.73
73748;BME280;62056;52.130;5.428;2023-05-15T05:09:49;101723.56;;;11.12;83.43
73748;BME280;62056;52.130;5.428;2023-05-15T05:12:16;101734.22;;;11.17;83.78
73748;BME280;62056;52.130;5.428;2023-05-15T05:14:43;101741.94;;;11.24;83.85
73748;BME280;62056;52.130;5.428;2023-05-15T05:17:10;101741.41;;;11.32;83.88
73748;BME280;62056;52.130;5.428;2023-05-15T05:19:37;101745.91;;;11.37;83.63
73748;BME280;62056;52.130;5.428;2023-05-15T05:22:04;101743.25;;;11.37;83.26
73748;BME280;62056;52.130;5.428;2023-05-15T05:24:31;101743.50;;;11.40;83.69
73748;BME280;62056;52.130;5.428;2023-05-15T05:26:58;101737.09;;;11.41;83.80
73748;BME280;62056;52.130;5.428;2023-05-15T05:29:25;101737.38;;;11.45;83.45
73748;BME280;62056;52.130;5.428;2023-05-15T05:31:52;101737.09;;;11.41;83.70
73748;BME280;62056;52.130;5.428;2023-05-15T05:34:19;101729.13;;;11.46;83.64
73748;BME280;62056;52.130;5.428;2023-05-15T05:36:46;101725.66;;;11.51;83.31
73748;BME280;62056;52.130;5.428;2023-05-15T05:39:14;101727.50;;;11.55;83.96
73748;BME280;62056;52.130;5.428;2023-05-15T05:41:42;101722.16;;;11.61;83.58
73748;BME280;62056;52.130;5.428;2023-05-15T05:44:09;101728.00;;;11.68;83.49
73748;BME280;62056;52.130;5.428;2023-05-15T05:46:36;101730.13;;;11.71;83.63
73748;BME280;62056;52.130;5.428;2023-05-15T05:49:03;101726.63;;;11.75;83.01
73748;BME280;62056;52.130;5.428;2023-05-15T05:51:30;101724.50;;;11.78;83.18
73748;BME280;62056;52.130;5.428;2023-05-15T05:53:57;101733.03;;;11.80;82.62
73748;BME280;62056;52.130;5.428;2023-05-15T05:56:24;101729.28;;;11.86;83.04
73748;BME280;62056;52.130;5.428;2023-05-15T05:58:52;101729.53;;;11.89;82.52
73748;BME280;62056;52.130;5.428;2023-05-15T06:01:19;101731.41;;;11.89;81.94
73748;BME280;62056;52.130;5.428;2023-05-15T06:03:46;101736.44;;;11.95;82.28
73748;BME280;62056;52.130;5.428;2023-05-15T06:06:12;101720.44;;;12.01;82.27
73748;BME280;62056;52.130;5.428;2023-05-15T06:08:39;101724.09;;;12.10;83.17
73748;BME280;62056;52.130;5.428;2023-05-15T06:11:06;101727.28;;;12.17;81.39
73748;BME280;62056;52.130;5.428;2023-05-15T06:13:32;101722.69;;;12.28;82.36
73748;BME280;62056;52.130;5.428;2023-05-15T06:15:59;101714.13;;;12.36;81.98
73748;BME280;62056;52.130;5.428;2023-05-15T06:18:26;101722.31;;;12.45;82.12
73748;BME280;62056;52.130;5.428;2023-05-15T06:20:52;101720.69;;;12.49;81.78
73748;BME280;62056;52.130;5.428;2023-05-15T06:23:19;101714.03;;;12.46;80.39
73748;BME280;62056;52.130;5.428;2023-05-15T06:25:49;101716.97;;;12.45;80.85
73748;BME280;62056;52.130;5.428;2023-05-15T06:28:16;101719.06;;;12.53;81.65
73748;BME280;62056;52.130;5.428;2023-05-15T06:30:42;101718.75;;;12.60;81.04
73748;BME280;62056;52.130;5.428;2023-05-15T06:33:09;101715.16;;;12.74;81.95
73748;BME280;62056;52.130;5.428;2023-05-15T06:35:36;101715.56;;;12.92;82.51
73748;BME280;62056;52.130;5.428;2023-05-15T06:38:02;101715.09;;;13.14;82.90
73748;BME280;62056;52.130;5.428;2023-05-15T06:40:29;101711.38;;;13.39;83.78
73748;BME280;62056;52.130;5.428;2023-05-15T06:42:56;101718.69;;;13.57;83.26
73748;BME280;62056;52.130;5.428;2023-05-15T06:45:24;101717.56;;;13.83;83.01
73748;BME280;62056;52.130;5.428;2023-05-15T06:47:51;101721.25;;;14.11;83.92
73748;BME280;62056;52.130;5.428;2023-05-15T06:50:18;101718.56;;;14.30;83.35
73748;BME280;62056;52.130;5.428;2023-05-15T06:52:45;101714.44;;;14.37;78.72
73748;BME280;62056;52.130;5.428;2023-05-15T06:55:11;101715.97;;;14.63;82.66
73748;BME280;62056;52.130;5.428;2023-05-15T06:57:38;101717.22;;;14.84;82.17
73748;BME280;62056;52.130;5.428;2023-05-15T07:00:05;101715.00;;;15.05;80.79
73748;BME280;62056;52.130;5.428;2023-05-15T07:02:32;101724.94;;;15.18;80.06
73748;BME280;62056;52.130;5.428;2023-05-15T07:04:59;101717.03;;;15.27;78.84
73748;BME280;62056;52.130;5.428;2023-05-15T07:07:26;101724.66;;;15.34;77.21
73748;BME280;62056;52.130;5.428;2023-05-15T07:09:53;101717.22;;;15.45;76.53
73748;BME280;62056;52.130;5.428;2023-05-15T07:12:19;101720.09;;;15.48;75.01
73748;BME280;62056;52.130;5.428;2023-05-15T07:14:46;101721.59;;;15.54;75.33
73748;BME280;62056;52.130;5.428;2023-05-15T07:17:13;101718.59;;;15.70;75.16
73748;BME280;62056;52.130;5.428;2023-05-15T07:19:39;101718.81;;;15.59;73.79
73748;BME280;62056;52.130;5.428;2023-05-15T07:22:06;101719.00;;;15.63;73.34
73748;BME280;62056;52.130;5.428;2023-05-15T07:24:33;101717.72;;;15.74;73.51
73748;BME280;62056;52.130;5.428;2023-05-15T07:27:00;101718.06;;;15.73;73.43
73748;BME280;62056;52.130;5.428;2023-05-15T07:29:27;101721.53;;;15.73;67.85
73748;BME280;62056;52.130;5.428;2023-05-15T07:31:53;101719.00;;;15.77;72.56
73748;BME280;62056;52.130;5.428;2023-05-15T07:34:20;101719.22;;;15.94;71.48
73748;BME280;62056;52.130;5.428;2023-05-15T07:36:47;101716.94;;;15.88;71.33
73748;BME280;62056;52.130;5.428;2023-05-15T07:39:13;101722.69;;;15.81;69.54
73748;BME280;62056;52.130;5.428;2023-05-15T07:41:41;101716.31;;;15.91;71.21
73748;BME280;62056;52.130;5.428;2023-05-15T07:44:07;101714.59;;;16.09;70.96
73748;BME280;62056;52.130;5.428;2023-05-15T07:46:34;101715.19;;;16.06;67.11
73748;BME280;62056;52.130;5.428;2023-05-15T07:49:01;101720.34;;;16.16;70.22
73748;BME280;62056;52.130;5.428;2023-05-15T07:51:28;101724.22;;;16.24;69.31
73748;BME280;62056;52.130;5.428;2023-05-15T07:53:54;101721.09;;;16.30;69.49
73748;BME280;62056;52.130;5.428;2023-05-15T07:56:22;101709.44;;;16.35;69.64
73748;BME280;62056;52.130;5.428;2023-05-15T07:58:48;101718.38;;;16.44;68.70
73748;BME280;62056;52.130;5.428;2023-05-15T08:01:15;101713.78;;;16.45;68.41
73748;BME280;62056;52.130;5.428;2023-05-15T08:03:42;101699.94;;;16.51;68.59
73748;BME280;62056;52.130;5.428;2023-05-15T08:06:09;101702.03;;;16.54;66.79
73748;BME280;62056;52.130;5.428;2023-05-15T08:08:36;101706.66;;;16.63;66.31
73748;BME280;62056;52.130;5.428;2023-05-15T08:11:03;101705.19;;;16.56;67.21
73748;BME280;62056;52.130;5.428;2023-05-15T08:13:29;101710.81;;;16.69;67.25
73748;BME280;62056;52.130;5.428;2023-05-15T08:15:56;101709.09;;;16.73;65.89
73748;BME280;62056;52.130;5.428;2023-05-15T08:18:23;101712.56;;;16.73;64.49
73748;BME280;62056;52.130;5.428;2023-05-15T08:20:50;101709.03;;;16.87;64.72
73748;BME280;62056;52.130;5.428;2023-05-15T08:23:17;101709.94;;;17.05;64.51
73748;BME280;62056;52.130;5.428;2023-05-15T08:25:44;101710.47;;;17.15;64.03
73748;BME280;62056;52.130;5.428;2023-05-15T08:28:11;101709.22;;;17.22;64.52
73748;BME280;62056;52.130;5.428;2023-05-15T08:30:37;101697.59;;;17.44;64.60
73748;BME280;62056;52.130;5.428;2023-05-15T08:33:04;101705.84;;;17.56;63.06
73748;BME280;62056;52.130;5.428;2023-05-15T08:35:31;101705.84;;;17.56;62.56
73748;BME280;62056;52.130;5.428;2023-05-15T08:37:58;101709.84;;;17.58;61.97
73748;BME280;62056;52.130;5.428;2023-05-15T08:40:25;101703.22;;;17.65;61.41
73748;BME280;62056;52.130;5.428;2023-05-15T08:43:21;101713.00;;;17.60;60.59
73748;BME280;62056;52.130;5.428;2023-05-15T08:45:48;101703.16;;;17.56;60.71
73748;BME280;62056;52.130;5.428;2023-05-15T08:48:16;101703.22;;;17.73;58.68
73748;BME280;62056;52.130;5.428;2023-05-15T08:50:45;101700.16;;;17.57;59.27
73748;BME280;62056;52.130;5.428;2023-05-15T08:53:13;101708.59;;;17.25;58.70
73748;BME280;62056;52.130;5.428;2023-05-15T08:55:40;101705.66;;;17.44;59.51
73748;BME280;62056;52.130;5.428;2023-05-15T08:58:07;101706.50;;;17.53;59.18
73748;BME280;62056;52.130;5.428;2023-05-15T09:00:34;101701.75;;;17.58;59.52
73748;BME280;62056;52.130;5.428;2023-05-15T09:03:01;101705.47;;;17.31;58.90
73748;BME280;62056;52.130;5.428;2023-05-15T09:05:28;101707.91;;;17.50;59.07
73748;BME280;62056;52.130;5.428;2023-05-15T09:07:58;101708.09;;;17.23;58.55
73748;BME280;62056;52.130;5.428;2023-05-15T09:10:25;101708.97;;;17.40;59.91
73748;BME280;62056;52.130;5.428;2023-05-15T09:12:53;101713.63;;;17.57;58.82
73748;BME280;62056;52.130;5.428;2023-05-15T09:15:22;101714.41;;;17.58;59.41
73748;BME280;62056;52.130;5.428;2023-05-15T09:17:51;101714.69;;;17.48;59.37
73748;BME280;62056;52.130;5.428;2023-05-15T09:20:31;101715.34;;;17.53;58.30
73748;BME280;62056;52.130;5.428;2023-05-15T09:22:59;101713.31;;;17.59;59.20
73748;BME280;62056;52.130;5.428;2023-05-15T09:28:00;101719.94;;;17.53;58.55
73748;BME280;62056;52.130;5.428;2023-05-15T09:30:27;101718.72;;;17.76;59.28
73748;BME280;62056;52.130;5.428;2023-05-15T09:33:00;101713.38;;;17.85;59.43
73748;BME280;62056;52.130;5.428;2023-05-15T09:35:33;101709.59;;;17.95;58.65
73748;BME280;62056;52.130;5.428;2023-05-15T09:38:03;101717.63;;;17.77;59.74
73748;BME280;62056;52.130;5.428;2023-05-15T09:40:30;101716.41;;;17.84;59.96
73748;BME280;62056;52.130;5.428;2023-05-15T09:42:58;101713.22;;;17.82;59.90
73748;BME280;62056;52.130;5.428;2023-05-15T09:45:25;101707.22;;;17.85;60.22
73748;BME280;62056;52.130;5.428;2023-05-15T09:47:58;101704.00;;;17.65;60.88
73748;BME280;62056;52.130;5.428;2023-05-15T09:50:32;101711.59;;;17.80;60.40
73748;BME280;62056;52.130;5.428;2023-05-15T09:52:59;101707.09;;;17.90;60.65
73748;BME280;62056;52.130;5.428;2023-05-15T09:55:26;101706.91;;;18.12;60.39
73748;BME280;62056;52.130;5.428;2023-05-15T09:58:10;101709.78;;;18.07;60.16
73748;BME280;62056;52.130;5.428;2023-05-15T10:00:38;101705.19;;;17.99;60.22
73748;BME280;62056;52.130;5.428;2023-05-15T10:03:17;101710.66;;;17.76;61.23
73748;BME280;62056;52.130;5.428;2023-05-15T10:05:58;101702.97;;;18.01;60.79
73748;BME280;62056;52.130;5.428;2023-05-15T10:08:26;101720.06;;;18.05;60.24
73748;BME280;62056;52.130;5.428;2023-05-15T10:10:58;101715.78;;;17.95;60.46
73748;BME280;62056;52.130;5.428;2023-05-15T10:13:26;101724.56;;;17.78;60.75
73748;BME280;62056;52.130;5.428;2023-05-15T10:15:56;101714.00;;;17.82;60.77
73748;BME280;62056;52.130;5.428;2023-05-15T10:18:23;101723.38;;;17.93;60.11
73748;BME280;62056;52.130;5.428;2023-05-15T10:20:53;101718.72;;;17.76;60.52
73748;BME280;62056;52.130;5.428;2023-05-15T10:23:49;101719.94;;;17.62;60.79
73748;BME280;62056;52.130;5.428;2023-05-15T10:26:23;101723.00;;;17.69;60.65
73748;BME280;62056;52.130;5.428;2023-05-15T10:28:50;101725.34;;;17.70;60.64
73748;BME280;62056;52.130;5.428;2023-05-15T10:31:19;101719.72;;;17.40;61.61
73748;BME280;62056;52.130;5.428;2023-05-15T10:33:46;101726.88;;;17.54;61.31
73748;BME280;62056;52.130;5.428;2023-05-15T10:36:13;101733.94;;;17.32;62.04
73748;BME280;62056;52.130;5.428;2023-05-15T10:38:41;101725.28;;;17.44;61.92
73748;BME280;62056;52.130;5.428;2023-05-15T10:41:10;101729.91;;;17.52;61.85
73748;BME280;62056;52.130;5.428;2023-05-15T10:43:43;101738.38;;;17.37;62.26
73748;BME280;62056;52.130;5.428;2023-05-15T10:46:12;101741.25;;;17.40;62.41
73748;BME280;62056;52.130;5.428;2023-05-15T10:48:39;101732.72;;;17.47;62.04
73748;BME280;62056;52.130;5.428;2023-05-15T10:51:15;101726.84;;;17.45;62.31
73748;BME280;62056;52.130;5.428;2023-05-15T10:53:43;101726.25;;;17.48;62.15
73748;BME280;62056;52.130;5.428;2023-05-15T10:56:14;101731.44;;;17.45;62.37
73748;BME280;62056;52.130;5.428;2023-05-15T10:58:46;101722.72;;;17.39;62.81
73748;BME280;62056;52.130;5.428;2023-05-15T11:01:29;101720.03;;;17.39;62.43
73748;BME280;62056;52.130;5.428;2023-05-15T11:04:10;101730.16;;;17.33;62.89
73748;BME280;62056;52.130;5.428;2023-05-15T11:06:39;101732.69;;;17.38;62.57
73748;BME280;62056;52.130;5.428;2023-05-15T11:11:57;101725.09;;;17.32;63.33
73748;BME280;62056;52.130;5.428;2023-05-15T11:14:29;101716.72;;;17.33;62.92
73748;BME280;62056;52.130;5.428;2023-05-15T11:17:00;101725.56;;;17.34;62.75
73748;BME280;62056;52.130;5.428;2023-05-15T11:22:56;101725.78;;;17.15;63.30
73748;BME280;62056;52.130;5.428;2023-05-15T11:25:28;101722.63;;;17.13;63.90
73748;BME280;62056;52.130;5.428;2023-05-15T11:27:56;101725.94;;;17.18;63.47
73748;BME280;62056;52.130;5.428;2023-05-15T11:30:37;101728.34;;;17.20;63.56
73748;BME280;62056;52.130;5.428;2023-05-15T11:33:06;101730.56;;;17.27;63.09
73748;BME280;62056;52.130;5.428;2023-05-15T11:35:40;101732.78;;;17.25;63.32
73748;BME280;62056;52.130;5.428;2023-05-15T11:38:37;101731.31;;;17.18;63.80
73748;BME280;62056;52.130;5.428;2023-05-15T11:41:18;101724.41;;;17.26;63.26
73748;BME280;62056;52.130;5.428;2023-05-15T11:43:49;101734.81;;;17.19;63.29
73748;BME280;62056;52.130;5.428;2023-05-15T11:46:16;101726.84;;;17.05;63.67
73748;BME280;62056;52.130;5.428;2023-05-15T11:48:44;101719.22;;;16.98;64.23
73748;BME280;62056;52.130;5.428;2023-05-15T11:51:19;101716.41;;;17.04;64.11
73748;BME280;62056;52.130;5.428;2023-05-15T11:53:51;101718.53;;;17.15;64.00
73748;BME280;62056;52.130;5.428;2023-05-15T11:56:20;101721.69;;;17.17;64.10
73748;BME280;62056;52.130;5.428;2023-05-15T11:58:49;101723.97;;;17.02;63.70
73748;BME280;62056;52.130;5.428;2023-05-15T12:01:16;101717.38;;;17.08;63.94
73748;BME280;62056;52.130;5.428;2023-05-15T12:03:45;101710.47;;;17.15;63.67
73748;BME280;62056;52.130;5.428;2023-05-15T12:06:13;101714.81;;;17.34;62.64
73748;BME280;62056;52.130;5.428;2023-05-15T12:08:40;101716.06;;;17.36;63.09
73748;BME280;62056;52.130;5.428;2023-05-15T12:11:11;101713.09;;;17.38;62.59
73748;BME280;62056;52.130;5.428;2023-05-15T12:13:37;101715.00;;;17.46;62.68
73748;BME280;62056;52.130;5.428;2023-05-15T12:16:04;101720.22;;;17.51;62.78
73748;BME280;62056;52.130;5.428;2023-05-15T12:18:32;101713.31;;;17.68;62.87
73748;BME280;62056;52.130;5.428;2023-05-15T12:20:59;101718.41;;;17.78;61.89
73748;BME280;62056;52.130;5.428;2023-05-15T12:23:26;101718.94;;;17.89;62.34
73748;BME280;62056;52.130;5.428;2023-05-15T12:25:58;101713.09;;;17.95;61.41
73748;BME280;62056;52.130;5.428;2023-05-15T12:28:33;101709.31;;;18.05;60.76
73748;BME280;62056;52.130;5.428;2023-05-15T12:31:00;101706.13;;;18.03;59.21
73748;BME280;62056;52.130;5.428;2023-05-15T12:33:28;101708.81;;;17.94;60.29
73748;BME280;62056;52.130;5.428;2023-05-15T12:35:55;101708.03;;;18.11;60.68
73748;BME280;62056;52.130;5.428;2023-05-15T12:38:27;101707.56;;;18.18;60.58
73748;BME280;62056;52.130;5.428;2023-05-15T12:40:56;101706.16;;;18.29;60.08
73748;BME280;62056;52.130;5.428;2023-05-15T12:43:23;101700.72;;;18.55;58.75
73748;BME280;62056;52.130;5.428;2023-05-15T12:45:52;101706.28;;;18.50;58.81
73748;BME280;62056;52.130;5.428;2023-05-15T12:48:19;101700.41;;;18.57;58.93
73748;BME280;62056;52.130;5.428;2023-05-15T12:50:46;101697.09;;;18.51;58.08
73748;BME280;62056;52.130;5.428;2023-05-15T12:53:14;101696.94;;;18.56;58.82
73748;BME280;62056;52.130;5.428;2023-05-15T12:55:43;101697.69;;;18.74;58.24
73748;BME280;62056;52.130;5.428;2023-05-15T12:58:11;101699.75;;;18.77;58.09
73748;BME280;62056;52.130;5.428;2023-05-15T13:00:42;101693.25;;;18.78;58.29
73748;BME280;62056;52.130;5.428;2023-05-15T13:03:14;101692.28;;;18.74;58.53
73748;BME280;62056;52.130;5.428;2023-05-15T13:05:42;101688.03;;;18.73;58.12
73748;BME280;62056;52.130;5.428;2023-05-15T13:08:41;101689.16;;;18.64;57.29
73748;BME280;62056;52.130;5.428;2023-05-15T13:11:12;101694.34;;;18.77;57.32
73748;BME280;62056;52.130;5.428;2023-05-15T13:13:45;101687.66;;;19.01;56.65
73748;BME280;62056;52.130;5.428;2023-05-15T13:16:24;101686.38;;;19.07;56.39
73748;BME280;62056;52.130;5.428;2023-05-15T13:18:52;101693.94;;;19.14;56.35